createdAt,value
2018-06-23T00:00:03.817Z,1017.20
2018-06-23T00:01:03.878Z,1017.21
2018-06-23T00:02:03.932Z,1017.20
2018-06-23T00:03:03.996Z,1017.20
2018-06-23T00:04:04.048Z,1017.23
2018-06-23T00:05:04.106Z,1017.16
2018-06-23T00:06:04.162Z,1017.17
2018-06-23T00:07:04.219Z,1017.11
2018-06-23T00:08:04.276Z,1017.11
2018-06-23T00:09:04.336Z,1017.15
2018-06-23T00:10:04.391Z,1017.15
2018-06-23T00:11:04.449Z,1017.14
2018-06-23T00:12:04.506Z,1017.09
2018-06-23T00:13:04.564Z,1017.06
2018-06-23T00:14:04.623Z,1017.12
2018-06-23T00:15:04.679Z,1017.09
2018-06-23T00:16:04.736Z,1017.11
2018-06-23T00:17:04.796Z,1017.05
2018-06-23T00:18:04.851Z,1017.04
2018-06-23T00:19:04.910Z,1017.00
2018-06-23T00:20:04.965Z,1017.06
2018-06-23T00:21:05.023Z,1017.05
2018-06-23T00:22:05.080Z,1017.10
2018-06-23T00:23:05.137Z,1017.06
2018-06-23T00:24:05.193Z,1017.06
2018-06-23T00:25:05.252Z,1017.09
2018-06-23T00:26:05.311Z,1017.09
2018-06-23T00:27:05.367Z,1017.08
2018-06-23T00:28:05.425Z,1017.05
2018-06-23T00:29:05.482Z,1017.09
2018-06-23T00:30:05.539Z,1017.13
2018-06-23T00:31:05.595Z,1017.12
2018-06-23T00:32:05.653Z,1017.17
2018-06-23T00:33:05.711Z,1017.16
2018-06-23T00:34:05.768Z,1017.08
2018-06-23T00:35:05.825Z,1017.10
2018-06-23T00:36:06.133Z,1017.08
2018-06-23T00:37:05.941Z,1017.16
2018-06-23T00:38:05.998Z,1017.10
2018-06-23T00:39:06.055Z,1017.10
2018-06-23T00:40:06.111Z,1017.11
2018-06-23T00:41:06.169Z,1017.17
2018-06-23T00:42:06.227Z,1017.16
2018-06-23T00:43:06.282Z,1017.19
2018-06-23T00:44:06.340Z,1017.21
2018-06-23T00:45:06.398Z,1017.20
2018-06-23T00:46:06.455Z,1017.16
2018-06-23T00:47:06.512Z,1017.23
2018-06-23T00:48:06.569Z,1017.20
2018-06-23T00:49:06.625Z,1017.18
2018-06-23T00:50:06.685Z,1017.21
2018-06-23T00:51:06.740Z,1017.19
2018-06-23T00:52:06.798Z,1017.18
2018-06-23T00:53:06.856Z,1017.18
2018-06-23T00:54:06.913Z,1017.16
2018-06-23T00:55:06.969Z,1017.18
2018-06-23T00:56:07.030Z,1017.22
2018-06-23T00:57:07.085Z,1017.18
2018-06-23T00:58:07.140Z,1017.14
2018-06-23T00:59:07.198Z,1017.13
2018-06-23T01:00:07.256Z,1017.09
2018-06-23T01:01:07.312Z,1017.11
2018-06-23T01:02:07.370Z,1017.07
2018-06-23T01:03:07.426Z,1017.11
2018-06-23T01:04:07.484Z,1017.10
2018-06-23T01:05:07.541Z,1017.04
2018-06-23T01:06:07.598Z,1017.07
2018-06-23T01:07:07.654Z,1017.09
2018-06-23T01:08:07.710Z,1017.12
2018-06-23T01:09:07.769Z,1017.13
2018-06-23T01:10:07.825Z,1017.11
2018-06-23T01:11:07.883Z,1017.15
2018-06-23T01:12:07.939Z,1017.13
2018-06-23T01:13:07.997Z,1017.17
2018-06-23T01:14:08.054Z,1017.10
2018-06-23T01:15:08.109Z,1017.04
2018-06-23T01:16:08.167Z,1017.11
2018-06-23T01:17:08.225Z,1017.14
2018-06-23T01:18:08.281Z,1017.15
2018-06-23T01:19:08.337Z,1017.18
2018-06-23T01:20:08.395Z,1017.19
2018-06-23T01:21:08.452Z,1017.16
2018-06-23T01:22:08.509Z,1017.21
2018-06-23T01:23:08.565Z,1017.15
2018-06-23T01:24:08.623Z,1017.16
2018-06-23T01:25:08.679Z,1017.14
2018-06-23T01:26:08.737Z,1017.17
2018-06-23T01:27:08.796Z,1017.17
2018-06-23T01:28:08.850Z,1017.18
2018-06-23T01:29:08.907Z,1017.22
2018-06-23T01:30:08.966Z,1017.20
2018-06-23T01:31:09.019Z,1017.23
2018-06-23T01:32:09.077Z,1017.24
2018-06-23T01:33:09.136Z,1017.25
2018-06-23T01:34:09.196Z,1017.24
2018-06-23T01:35:09.248Z,1017.28
2018-06-23T01:36:09.305Z,1017.31
2018-06-23T01:37:09.362Z,1017.32
2018-06-23T01:38:09.419Z,1017.32
2018-06-23T01:39:09.475Z,1017.35
2018-06-23T01:40:09.532Z,1017.35
2018-06-23T01:41:09.590Z,1017.32
2018-06-23T01:42:09.649Z,1017.38
2018-06-23T01:43:09.707Z,1017.30
2018-06-23T01:44:09.759Z,1017.31
2018-06-23T01:45:09.819Z,1017.32
2018-06-23T01:46:09.873Z,1017.27
2018-06-23T01:47:09.931Z,1017.25
2018-06-23T01:48:09.987Z,1017.22
2018-06-23T01:49:10.047Z,1017.18
2018-06-23T01:50:10.353Z,1017.18
2018-06-23T01:51:10.159Z,1017.15
2018-06-23T01:52:10.213Z,1017.20
2018-06-23T01:53:10.272Z,1017.16
2018-06-23T01:54:10.328Z,1017.21
2018-06-23T01:55:10.385Z,1017.14
2018-06-23T01:56:10.442Z,1017.19
2018-06-23T01:57:10.499Z,1017.18
2018-06-23T01:58:10.558Z,1017.16
2018-06-23T01:59:10.614Z,1017.10
2018-06-23T02:00:10.670Z,1017.09
2018-06-23T02:01:10.727Z,1017.07
2018-06-23T02:02:10.784Z,1017.11
2018-06-23T02:03:10.839Z,1017.07
2018-06-23T02:04:10.897Z,1017.05
2018-06-23T02:05:10.954Z,1017.05
2018-06-23T02:06:11.019Z,1017.09
2018-06-23T02:07:11.068Z,1017.03
2018-06-23T02:08:11.128Z,1017.06
2018-06-23T02:09:11.183Z,1017.06
2018-06-23T02:10:11.239Z,1017.03
2018-06-23T02:11:11.295Z,1016.99
2018-06-23T02:12:11.356Z,1016.96
2018-06-23T02:13:11.410Z,1016.98
2018-06-23T02:14:11.467Z,1016.92
2018-06-23T02:15:11.532Z,1016.96
2018-06-23T02:16:11.581Z,1016.97
2018-06-23T02:17:11.639Z,1016.98
2018-06-23T02:18:11.698Z,1016.97
2018-06-23T02:19:11.754Z,1016.97
2018-06-23T02:20:11.808Z,1016.98
2018-06-23T02:21:11.865Z,1016.96
2018-06-23T02:22:11.922Z,1016.93
2018-06-23T02:23:11.979Z,1016.93
2018-06-23T02:24:12.035Z,1016.99
2018-06-23T02:25:12.092Z,1016.98
2018-06-23T02:26:12.150Z,1017.02
2018-06-23T02:27:12.206Z,1017.05
2018-06-23T02:28:12.263Z,1017.04
2018-06-23T02:29:12.570Z,1017.06
2018-06-23T02:30:12.377Z,1017.12
2018-06-23T02:31:12.434Z,1017.12
2018-06-23T02:32:12.491Z,1017.10
2018-06-23T02:33:12.547Z,1017.10
2018-06-23T02:34:12.603Z,1017.06
2018-06-23T02:35:12.662Z,1017.07
2018-06-23T02:36:12.718Z,1017.07
2018-06-23T02:37:12.776Z,1017.02
2018-06-23T02:38:12.833Z,1017.03
2018-06-23T02:39:12.890Z,1017.03
2018-06-23T02:40:12.945Z,1017.05
2018-06-23T02:41:13.001Z,1017.04
2018-06-23T02:42:13.060Z,1017.05
2018-06-23T02:43:13.115Z,1017.10
2018-06-23T02:44:13.173Z,1017.11
2018-06-23T02:45:13.229Z,1017.10
2018-06-23T02:46:13.287Z,1017.09
2018-06-23T02:47:13.343Z,1017.12
2018-06-23T02:48:13.400Z,1017.16
2018-06-23T02:49:13.456Z,1017.16
2018-06-23T02:50:13.514Z,1017.19
2018-06-23T02:51:13.570Z,1017.14
2018-06-23T02:52:13.876Z,1017.10
2018-06-23T02:53:13.684Z,1017.11
2018-06-23T02:54:13.741Z,1017.08
2018-06-23T02:55:13.796Z,1017.06
2018-06-23T02:56:13.855Z,1017.03
2018-06-23T02:57:13.912Z,1017.08
2018-06-23T02:58:13.968Z,1017.09
2018-06-23T02:59:14.025Z,1017.09
2018-06-23T03:00:14.097Z,1017.03
2018-06-23T03:01:14.143Z,1017.07
2018-06-23T03:02:14.198Z,1017.03
2018-06-23T03:03:14.252Z,1017.00
2018-06-23T03:04:14.312Z,1017.00
2018-06-23T03:05:14.368Z,1017.03
2018-06-23T03:06:14.426Z,1016.98
2018-06-23T03:07:14.481Z,1016.98
2018-06-23T03:08:14.539Z,1016.95
2018-06-23T03:09:14.595Z,1016.96
2018-06-23T03:10:14.653Z,1016.97
2018-06-23T03:11:14.712Z,1016.94
2018-06-23T03:12:14.769Z,1016.91
2018-06-23T03:13:14.827Z,1016.96
2018-06-23T03:14:14.882Z,1016.99
2018-06-23T03:15:14.939Z,1017.02
2018-06-23T03:16:14.997Z,1017.00
2018-06-23T03:17:15.053Z,1016.99
2018-06-23T03:18:15.110Z,1016.97
2018-06-23T03:19:15.168Z,1017.03
2018-06-23T03:20:15.232Z,1017.02
2018-06-23T03:21:15.283Z,1017.04
2018-06-23T03:22:15.342Z,1017.06
2018-06-23T03:23:15.396Z,1017.04
2018-06-23T03:24:15.453Z,1017.07
2018-06-23T03:25:15.512Z,1017.06
2018-06-23T03:26:15.575Z,1017.06
2018-06-23T03:27:15.624Z,1017.06
2018-06-23T03:28:15.683Z,1017.10
2018-06-23T03:29:15.741Z,1017.05
2018-06-23T03:30:15.797Z,1017.07
2018-06-23T03:31:15.853Z,1017.09
2018-06-23T03:32:15.911Z,1017.07
2018-06-23T03:33:15.969Z,1017.08
2018-06-23T03:34:16.025Z,1017.08
2018-06-23T03:35:16.082Z,1017.10
2018-06-23T03:36:16.389Z,1017.15
2018-06-23T03:37:16.197Z,1017.09
2018-06-23T03:38:16.253Z,1017.14
2018-06-23T03:39:16.310Z,1017.17
2018-06-23T03:40:16.367Z,1017.15
2018-06-23T03:41:16.425Z,1017.19
2018-06-23T03:42:16.481Z,1017.21
2018-06-23T03:43:16.538Z,1017.22
2018-06-23T03:44:16.594Z,1017.22
2018-06-23T03:45:16.654Z,1017.22
2018-06-23T03:46:16.709Z,1017.24
2018-06-23T03:47:16.764Z,1017.22
2018-06-23T03:48:16.822Z,1017.28
2018-06-23T03:49:16.880Z,1017.23
2018-06-23T03:50:16.937Z,1017.27
2018-06-23T03:51:16.994Z,1017.31
2018-06-23T03:52:17.050Z,1017.29
2018-06-23T03:53:17.107Z,1017.30
2018-06-23T03:54:17.165Z,1017.29
2018-06-23T03:55:17.221Z,1017.30
2018-06-23T03:56:17.278Z,1017.28
2018-06-23T03:57:17.335Z,1017.26
2018-06-23T03:58:17.392Z,1017.20
2018-06-23T03:59:17.447Z,1017.23
2018-06-23T04:00:17.540Z,1017.18
2018-06-23T04:01:17.579Z,1017.18
2018-06-23T04:02:17.620Z,1017.17
2018-06-23T04:03:17.678Z,1017.18
2018-06-23T04:04:17.734Z,1017.17
2018-06-23T04:05:17.792Z,1017.18
2018-06-23T04:06:17.860Z,1017.18
2018-06-23T04:07:17.908Z,1017.14
2018-06-23T04:08:17.965Z,1017.15
2018-06-23T04:09:18.021Z,1017.12
2018-06-23T04:10:18.078Z,1017.11
2018-06-23T04:11:18.135Z,1017.10
2018-06-23T04:12:18.192Z,1017.13
2018-06-23T04:13:18.250Z,1017.15
2018-06-23T04:14:18.306Z,1017.16
2018-06-23T04:15:18.364Z,1017.18
2018-06-23T04:16:18.421Z,1017.22
2018-06-23T04:17:18.477Z,1017.24
2018-06-23T04:18:18.536Z,1017.22
2018-06-23T04:19:18.593Z,1017.25
2018-06-23T04:20:18.650Z,1017.22
2018-06-23T04:21:18.709Z,1017.24
2018-06-23T04:22:18.765Z,1017.23
2018-06-23T04:23:18.822Z,1017.23
2018-06-23T04:24:18.880Z,1017.27
2018-06-23T04:25:18.937Z,1017.29
2018-06-23T04:26:18.995Z,1017.29
2018-06-23T04:27:19.052Z,1017.33
2018-06-23T04:28:19.110Z,1017.37
2018-06-23T04:29:19.185Z,1017.38
2018-06-23T04:30:19.226Z,1017.36
2018-06-23T04:31:19.282Z,1017.39
2018-06-23T04:32:19.338Z,1017.38
2018-06-23T04:33:19.396Z,1017.37
2018-06-23T04:34:19.455Z,1017.40
2018-06-23T04:35:19.512Z,1017.37
2018-06-23T04:36:19.969Z,1017.41
2018-06-23T04:37:19.631Z,1017.39
2018-06-23T04:38:19.685Z,1017.39
2018-06-23T04:39:19.742Z,1017.37
2018-06-23T04:40:19.799Z,1017.35
2018-06-23T04:41:20.516Z,1017.39
2018-06-23T04:42:20.719Z,1017.35
2018-06-23T04:43:20.606Z,1017.35
2018-06-23T04:44:20.732Z,1017.39
2018-06-23T04:45:20.088Z,1017.38
2018-06-23T04:46:20.146Z,1017.35
2018-06-23T04:47:20.202Z,1017.35
2018-06-23T04:48:20.260Z,1017.36
2018-06-23T04:49:20.318Z,1017.38
2018-06-23T04:50:20.376Z,1017.36
2018-06-23T04:51:20.433Z,1017.33
2018-06-23T04:52:20.491Z,1017.30
2018-06-23T04:53:20.551Z,1017.32
2018-06-23T04:54:20.607Z,1017.32
2018-06-23T04:55:20.665Z,1017.33
2018-06-23T04:56:20.723Z,1017.33
2018-06-23T04:57:20.780Z,1017.31
2018-06-23T04:58:20.838Z,1017.37
2018-06-23T04:59:20.898Z,1017.36
2018-06-23T05:00:20.981Z,1017.38
2018-06-23T05:01:21.012Z,1017.37
2018-06-23T05:02:21.072Z,1017.30
2018-06-23T05:03:21.128Z,1017.35
2018-06-23T05:04:21.185Z,1017.34
2018-06-23T05:05:21.247Z,1017.38
2018-06-23T05:06:21.300Z,1017.38
2018-06-23T05:07:21.363Z,1017.34
2018-06-23T05:08:21.418Z,1017.37
2018-06-23T05:09:21.475Z,1017.33
2018-06-23T05:10:21.784Z,1017.29
2018-06-23T05:11:21.595Z,1017.35
2018-06-23T05:12:21.693Z,1017.35
2018-06-23T05:13:21.709Z,1017.37
2018-06-23T05:14:21.767Z,1017.44
2018-06-23T05:15:21.825Z,1017.43
2018-06-23T05:16:21.880Z,1017.43
2018-06-23T05:17:21.939Z,1017.44
2018-06-23T05:18:21.998Z,1017.44
2018-06-23T05:19:22.055Z,1017.43
2018-06-23T05:20:22.115Z,1017.46
2018-06-23T05:21:22.172Z,1017.41
2018-06-23T05:22:22.231Z,1017.42
2018-06-23T05:23:22.288Z,1017.41
2018-06-23T05:24:22.347Z,1017.41
2018-06-23T05:25:22.405Z,1017.42
2018-06-23T05:26:22.464Z,1017.45
2018-06-23T05:27:22.521Z,1017.44
2018-06-23T05:28:22.579Z,1017.44
2018-06-23T05:29:22.640Z,1017.41
2018-06-23T05:30:22.699Z,1017.42
2018-06-23T05:31:22.755Z,1017.39
2018-06-23T05:32:22.814Z,1017.39
2018-06-23T05:33:22.873Z,1017.38
2018-06-23T05:34:22.931Z,1017.38
2018-06-23T05:35:22.991Z,1017.38
2018-06-23T05:36:23.050Z,1017.38
2018-06-23T05:37:23.107Z,1017.38
2018-06-23T05:38:23.166Z,1017.39
2018-06-23T05:39:23.375Z,1017.40
2018-06-23T05:40:23.285Z,1017.40
2018-06-23T05:41:23.341Z,1017.45
2018-06-23T05:42:23.401Z,1017.44
2018-06-23T05:43:23.460Z,1017.48
2018-06-23T05:44:23.521Z,1017.52
2018-06-23T05:45:23.578Z,1017.53
2018-06-23T05:46:23.637Z,1017.52
2018-06-23T05:47:23.696Z,1017.54
2018-06-23T05:48:23.755Z,1017.58
2018-06-23T05:49:23.813Z,1017.55
2018-06-23T05:50:23.875Z,1017.56
2018-06-23T05:51:24.028Z,1017.56
2018-06-23T05:52:23.993Z,1017.56
2018-06-23T05:53:24.053Z,1017.55
2018-06-23T05:54:24.111Z,1017.55
2018-06-23T05:55:24.170Z,1017.57
2018-06-23T05:56:24.230Z,1017.56
2018-06-23T05:57:24.293Z,1017.58
2018-06-23T05:58:24.348Z,1017.57
2018-06-23T05:59:24.412Z,1017.54
2018-06-23T06:00:24.468Z,1017.50
2018-06-23T06:01:24.528Z,1017.52
2018-06-23T06:02:24.586Z,1017.55
2018-06-23T06:03:24.646Z,1017.56
2018-06-23T06:04:24.705Z,1017.55
2018-06-23T06:05:24.765Z,1017.57
2018-06-23T06:06:24.828Z,1017.57
2018-06-23T06:07:25.133Z,1017.53
2018-06-23T06:08:24.943Z,1017.55
2018-06-23T06:09:25.005Z,1017.54
2018-06-23T06:10:25.099Z,1017.57
2018-06-23T06:11:25.121Z,1017.59
2018-06-23T06:12:25.182Z,1017.58
2018-06-23T06:13:25.244Z,1017.59
2018-06-23T06:14:25.302Z,1017.58
2018-06-23T06:15:26.024Z,1017.59
2018-06-23T06:16:26.060Z,1017.56
2018-06-23T06:17:26.056Z,1017.59
2018-06-23T06:18:26.566Z,1017.59
2018-06-23T06:19:26.165Z,1017.54
2018-06-23T06:20:26.222Z,1017.52
2018-06-23T06:21:26.296Z,1017.52
2018-06-23T06:22:26.375Z,1017.60
2018-06-23T06:23:26.541Z,1017.55
2018-06-23T06:24:26.756Z,1017.51
2018-06-23T06:25:26.683Z,1017.53
2018-06-23T06:26:26.697Z,1017.56
2018-06-23T06:27:26.725Z,1017.55
2018-06-23T06:28:26.732Z,1017.57
2018-06-23T06:29:26.840Z,1017.60
2018-06-23T06:30:30.427Z,1017.63
2018-06-23T06:31:26.323Z,1017.64
2018-06-23T06:32:26.381Z,1017.66
2018-06-23T06:33:26.444Z,1017.61
2018-06-23T06:34:27.080Z,1017.60
2018-06-23T06:35:27.175Z,1017.61
2018-06-23T06:36:27.321Z,1017.61
2018-06-23T06:37:26.682Z,1017.62
2018-06-23T06:38:26.743Z,1017.64
2018-06-23T06:39:26.802Z,1017.67
2018-06-23T06:40:26.861Z,1017.68
2018-06-23T06:41:26.923Z,1017.70
2018-06-23T06:42:27.632Z,1017.64
2018-06-23T06:43:27.646Z,1017.66
2018-06-23T06:44:27.741Z,1017.68
2018-06-23T06:45:27.754Z,1017.60
2018-06-23T06:46:27.854Z,1017.62
2018-06-23T06:47:28.047Z,1017.62
2018-06-23T06:48:28.020Z,1017.62
2018-06-23T06:49:27.985Z,1017.62
2018-06-23T06:50:28.031Z,1017.59
2018-06-23T06:51:28.013Z,1017.57
2018-06-23T06:52:28.178Z,1017.57
2018-06-23T06:53:28.108Z,1017.58
2018-06-23T06:55:28.270Z,1017.60
2018-06-23T06:56:28.328Z,1017.58
2018-06-23T06:57:28.276Z,1017.59
2018-06-23T06:58:28.732Z,1017.58
2018-06-23T06:59:28.013Z,1017.57
2018-06-23T07:00:28.085Z,1017.52
2018-06-23T07:01:28.135Z,1017.52
2018-06-23T07:02:28.196Z,1017.53
2018-06-23T07:03:28.306Z,1017.55
2018-06-23T07:04:28.316Z,1017.52
2018-06-23T07:05:28.377Z,1017.52
2018-06-23T07:06:28.439Z,1017.52
2018-06-23T07:07:28.499Z,1017.56
2018-06-23T07:08:28.559Z,1017.53
2018-06-23T07:09:28.620Z,1017.54
2018-06-23T07:10:28.681Z,1017.54
2018-06-23T07:11:28.740Z,1017.56
2018-06-23T07:12:28.801Z,1017.51
2018-06-23T07:13:28.862Z,1017.53
2018-06-23T07:14:28.923Z,1017.51
2018-06-23T07:15:28.994Z,1017.48
2018-06-23T07:16:29.044Z,1017.47
2018-06-23T07:17:29.105Z,1017.45
2018-06-23T07:18:29.166Z,1017.48
2018-06-23T07:19:29.230Z,1017.49
2018-06-23T07:20:29.287Z,1017.58
2018-06-23T07:21:29.349Z,1017.60
2018-06-23T07:22:29.410Z,1017.59
2018-06-23T07:23:29.522Z,1017.64
2018-06-23T07:24:29.530Z,1017.60
2018-06-23T07:25:29.591Z,1017.64
2018-06-23T07:26:29.652Z,1017.63
2018-06-23T07:27:29.713Z,1017.61
2018-06-23T07:28:29.774Z,1017.59
2018-06-23T07:29:29.834Z,1017.54
2018-06-23T07:30:29.896Z,1017.56
2018-06-23T07:31:29.962Z,1017.54
2018-06-23T07:32:30.168Z,1017.55
2018-06-23T07:33:30.078Z,1017.55
2018-06-23T07:34:30.246Z,1017.55
2018-06-23T07:35:30.199Z,1017.58
2018-06-23T07:36:30.265Z,1017.51
2018-06-23T07:37:30.323Z,1017.52
2018-06-23T07:38:30.637Z,1017.49
2018-06-23T07:39:30.443Z,1017.50
2018-06-23T07:40:30.504Z,1017.50
2018-06-23T07:41:30.616Z,1017.50
2018-06-23T07:42:30.628Z,1017.48
2018-06-23T07:43:30.687Z,1017.47
2018-06-23T07:44:30.749Z,1017.46
2018-06-23T07:45:30.810Z,1017.42
2018-06-23T07:46:30.881Z,1017.43
2018-06-23T07:47:30.931Z,1017.45
2018-06-23T07:48:30.993Z,1017.45
2018-06-23T07:49:31.831Z,1017.47
2018-06-23T07:50:31.721Z,1017.46
2018-06-23T07:51:31.175Z,1017.50
2018-06-23T07:52:31.237Z,1017.45
2018-06-23T07:53:31.301Z,1017.44
2018-06-23T07:54:31.360Z,1017.41
2018-06-23T07:55:31.570Z,1017.39
2018-06-23T07:56:31.481Z,1017.39
2018-06-23T07:57:31.543Z,1017.34
2018-06-23T07:58:31.603Z,1017.32
2018-06-23T07:59:31.664Z,1017.25
2018-06-23T08:00:31.725Z,1017.25
2018-06-23T08:01:31.819Z,1017.24
2018-06-23T08:02:31.848Z,1017.16
2018-06-23T08:03:31.910Z,1017.17
2018-06-23T08:04:31.971Z,1017.13
2018-06-23T08:05:32.030Z,1017.18
2018-06-23T08:06:32.094Z,1017.19
2018-06-23T08:07:32.152Z,1017.21
2018-06-23T08:08:32.212Z,1017.19
2018-06-23T08:09:32.281Z,1017.23
2018-06-23T08:10:32.335Z,1017.24
2018-06-23T08:11:32.396Z,1017.25
2018-06-23T08:12:32.707Z,1017.23
2018-06-23T08:13:32.520Z,1017.20
2018-06-23T08:14:32.586Z,1017.20
2018-06-23T08:15:32.641Z,1017.20
2018-06-23T08:16:32.702Z,1017.22
2018-06-23T08:17:32.763Z,1017.23
2018-06-23T08:18:32.838Z,1017.21
2018-06-23T08:19:32.885Z,1017.21
2018-06-23T08:20:32.947Z,1017.21
2018-06-23T08:21:33.009Z,1017.27
2018-06-23T08:22:33.072Z,1017.27
2018-06-23T08:23:33.132Z,1017.30
2018-06-23T08:24:33.194Z,1017.31
2018-06-23T08:25:33.261Z,1017.34
2018-06-23T08:26:33.411Z,1017.30
2018-06-23T08:27:33.379Z,1017.31
2018-06-23T08:28:33.440Z,1017.34
2018-06-23T08:29:33.503Z,1017.34
2018-06-23T08:30:33.566Z,1017.39
2018-06-23T08:31:33.627Z,1017.39
2018-06-23T08:32:33.690Z,1017.37
2018-06-23T08:33:33.752Z,1017.38
2018-06-23T08:34:33.814Z,1017.37
2018-06-23T08:35:33.877Z,1017.36
2018-06-23T08:36:33.942Z,1017.34
2018-06-23T08:37:34.002Z,1017.38
2018-06-23T08:38:34.066Z,1017.32
2018-06-23T08:39:34.128Z,1017.33
2018-06-23T08:40:34.191Z,1017.34
2018-06-23T08:41:34.254Z,1017.30
2018-06-23T08:42:34.316Z,1017.29
2018-06-23T08:43:34.391Z,1017.29
2018-06-23T08:44:34.446Z,1017.27
2018-06-23T08:45:34.506Z,1017.32
2018-06-23T08:46:34.570Z,1017.29
2018-06-23T08:47:34.634Z,1017.28
2018-06-23T08:48:34.699Z,1017.29
2018-06-23T08:49:34.762Z,1017.27
2018-06-23T08:50:34.826Z,1017.23
2018-06-23T08:51:35.040Z,1017.24
2018-06-23T08:52:34.957Z,1017.18
2018-06-23T08:53:35.019Z,1017.20
2018-06-23T08:54:35.083Z,1017.18
2018-06-23T08:55:35.151Z,1017.17
2018-06-23T08:56:35.212Z,1017.24
2018-06-23T08:57:35.277Z,1017.22
2018-06-23T08:58:35.342Z,1017.22
2018-06-23T08:59:35.406Z,1017.20
2018-06-23T09:00:35.471Z,1017.17
2018-06-23T09:01:35.537Z,1017.17
2018-06-23T09:02:35.602Z,1017.20
2018-06-23T09:03:35.665Z,1017.26
2018-06-23T09:04:35.731Z,1017.20
2018-06-23T09:05:35.798Z,1017.23
2018-06-23T09:06:35.864Z,1017.26
2018-06-23T09:07:35.926Z,1017.26
2018-06-23T09:08:35.994Z,1017.30
2018-06-23T09:09:36.131Z,1017.32
2018-06-23T09:10:36.124Z,1017.29
2018-06-23T09:11:36.188Z,1017.26
2018-06-23T09:12:36.257Z,1017.26
2018-06-23T09:13:36.352Z,1017.31
2018-06-23T09:14:36.386Z,1017.31
2018-06-23T09:15:36.451Z,1017.22
2018-06-23T09:16:36.517Z,1017.30
2018-06-23T09:17:36.582Z,1017.24
2018-06-23T09:18:36.652Z,1017.20
2018-06-23T09:19:36.779Z,1017.20
2018-06-23T09:20:36.784Z,1017.29
2018-06-23T09:21:36.844Z,1017.27
2018-06-23T09:22:36.911Z,1017.28
2018-06-23T09:23:36.979Z,1017.23
2018-06-23T09:24:37.042Z,1017.21
2018-06-23T09:25:37.239Z,1017.25
2018-06-23T09:26:37.375Z,1017.17
2018-06-23T09:27:37.238Z,1017.31
2018-06-23T09:28:37.303Z,1017.19
2018-06-23T09:29:37.369Z,1017.21
2018-06-23T09:30:37.434Z,1017.18
2018-06-23T09:31:37.511Z,1017.18
2018-06-23T09:32:37.573Z,1017.17
2018-06-23T09:33:37.632Z,1017.15
2018-06-23T09:34:37.698Z,1017.09
2018-06-23T09:35:37.762Z,1017.11
2018-06-23T09:36:37.829Z,1017.17
2018-06-23T09:37:37.899Z,1017.17
2018-06-23T09:38:37.961Z,1017.21
2018-06-23T09:39:38.041Z,1017.18
2018-06-23T09:40:38.093Z,1017.21
2018-06-23T09:41:38.160Z,1017.17
2018-06-23T09:42:38.225Z,1017.17
2018-06-23T09:43:38.294Z,1017.20
2018-06-23T09:44:38.357Z,1017.21
2018-06-23T09:45:38.423Z,1017.21
2018-06-23T09:46:38.490Z,1017.24
2018-06-23T09:47:38.556Z,1017.20
2018-06-23T09:48:38.622Z,1017.18
2018-06-23T09:49:38.689Z,1017.23
2018-06-23T09:50:38.754Z,1017.28
2018-06-23T09:51:38.817Z,1017.29
2018-06-23T09:52:38.885Z,1017.29
2018-06-23T09:53:38.951Z,1017.33
2018-06-23T09:54:39.016Z,1017.33
2018-06-23T09:55:39.082Z,1017.33
2018-06-23T09:56:39.150Z,1017.31
2018-06-23T09:57:39.215Z,1017.35
2018-06-23T09:58:39.281Z,1017.33
2018-06-23T09:59:39.345Z,1017.28
2018-06-23T10:00:39.412Z,1017.25
2018-06-23T10:01:39.478Z,1017.13
2018-06-23T10:02:39.544Z,1017.27
2018-06-23T10:03:39.611Z,1017.24
2018-06-23T10:04:39.676Z,1017.28
2018-06-23T10:05:39.741Z,1017.23
2018-06-23T10:06:39.810Z,1017.25
2018-06-23T10:07:40.447Z,1017.31
2018-06-23T10:08:40.489Z,1017.37
2018-06-23T10:09:40.596Z,1017.27
2018-06-23T10:10:40.688Z,1017.91
2018-06-23T10:11:40.748Z,1017.85
2018-06-23T10:12:41.030Z,1017.76
2018-06-23T10:13:40.934Z,1017.65
2018-06-23T10:14:40.969Z,1017.72
2018-06-23T10:15:41.023Z,1018.03
2018-06-23T10:16:41.055Z,1017.68
2018-06-23T10:17:40.644Z,1017.34
2018-06-23T10:18:41.188Z,1017.40
2018-06-23T10:19:41.189Z,1017.61
2018-06-23T10:20:41.275Z,1017.62
2018-06-23T10:21:41.395Z,1017.66
2018-06-23T10:22:40.876Z,1017.77
2018-06-23T10:23:41.702Z,1018.04
2018-06-23T10:24:41.679Z,1018.09
2018-06-23T10:25:41.663Z,1017.50
2018-06-23T10:26:41.763Z,1017.32
2018-06-23T10:27:41.951Z,1017.38
2018-06-23T10:28:41.813Z,1017.27
2018-06-23T10:29:42.114Z,1017.29
2018-06-23T10:30:41.942Z,1017.24
2018-06-23T10:31:42.101Z,1017.27
2018-06-23T10:32:42.179Z,1017.24
2018-06-23T10:33:42.197Z,1017.22
2018-06-23T10:34:42.531Z,1017.19
2018-06-23T10:35:42.408Z,1017.11
2018-06-23T10:36:41.833Z,1017.06
2018-06-23T10:37:41.902Z,1017.07
2018-06-23T10:38:41.970Z,1017.10
2018-06-23T10:39:42.038Z,1016.98
2018-06-23T10:40:42.105Z,1017.06
2018-06-23T10:41:42.176Z,1017.03
2018-06-23T10:42:42.241Z,1017.15
2018-06-23T10:43:42.306Z,1017.39
2018-06-23T10:44:42.374Z,1017.22
2018-06-23T10:45:42.441Z,1017.45
2018-06-23T10:46:42.509Z,1017.54
2018-06-23T10:47:42.576Z,1017.52
2018-06-23T10:48:42.644Z,1017.21
2018-06-23T10:49:42.711Z,1017.20
2018-06-23T10:50:42.779Z,1017.14
2018-06-23T10:51:42.846Z,1017.09
2018-06-23T10:52:42.915Z,1017.05
2018-06-23T10:53:42.982Z,1017.25
2018-06-23T10:54:43.052Z,1017.51
2018-06-23T10:55:43.118Z,1017.78
2018-06-23T10:56:43.187Z,1017.87
2018-06-23T10:57:43.269Z,1017.38
2018-06-23T10:58:43.325Z,1017.15
2018-06-23T10:59:43.392Z,1017.20
2018-06-23T11:00:43.461Z,1017.28
2018-06-23T11:01:43.529Z,1017.17
2018-06-23T11:02:43.751Z,1017.07
2018-06-23T11:03:43.668Z,1016.99
2018-06-23T11:04:43.760Z,1017.02
2018-06-23T11:05:43.813Z,1017.00
2018-06-23T11:06:43.875Z,1017.00
2018-06-23T11:07:43.941Z,1016.91
2018-06-23T11:08:44.013Z,1016.97
2018-06-23T11:09:44.080Z,1016.95
2018-06-23T11:10:44.149Z,1017.00
2018-06-23T11:11:44.216Z,1016.98
2018-06-23T11:12:44.287Z,1016.87
2018-06-23T11:13:44.352Z,1016.91
2018-06-23T11:14:44.421Z,1016.91
2018-06-23T11:15:44.487Z,1016.93
2018-06-23T11:16:44.556Z,1016.97
2018-06-23T11:17:44.622Z,1017.00
2018-06-23T11:18:44.840Z,1017.06
2018-06-23T11:19:44.756Z,1017.02
2018-06-23T11:20:44.823Z,1017.06
2018-06-23T11:21:44.889Z,1017.12
2018-06-23T11:22:44.956Z,1017.72
2018-06-23T11:23:45.023Z,1017.43
2018-06-23T11:24:45.090Z,1017.37
2018-06-23T11:25:45.157Z,1017.26
2018-06-23T11:26:45.223Z,1017.22
2018-06-23T11:27:45.290Z,1017.17
2018-06-23T11:28:45.358Z,1017.17
2018-06-23T11:29:45.426Z,1017.12
2018-06-23T11:30:45.494Z,1016.98
2018-06-23T11:31:45.562Z,1016.93
2018-06-23T11:32:45.632Z,1016.93
2018-06-23T11:33:45.702Z,1016.96
2018-06-23T11:34:45.765Z,1016.87
2018-06-23T11:35:45.831Z,1016.93
2018-06-23T11:36:45.902Z,1016.95
2018-06-23T11:37:45.967Z,1016.92
2018-06-23T11:38:46.037Z,1016.95
2018-06-23T11:39:46.102Z,1016.86
2018-06-23T11:40:46.169Z,1016.90
2018-06-23T11:41:46.390Z,1016.86
2018-06-23T11:42:46.305Z,1016.82
2018-06-23T11:43:46.372Z,1016.81
2018-06-23T11:44:46.445Z,1016.83
2018-06-23T11:45:46.508Z,1016.85
2018-06-23T11:46:46.573Z,1016.92
2018-06-23T11:47:46.637Z,1016.94
2018-06-23T11:48:46.704Z,1016.93
2018-06-23T11:49:46.771Z,1016.88
2018-06-23T11:50:46.837Z,1016.90
2018-06-23T11:51:46.902Z,1016.93
2018-06-23T11:52:46.969Z,1016.88
2018-06-23T11:53:47.037Z,1016.87
2018-06-23T11:54:47.105Z,1016.82
2018-06-23T11:55:47.168Z,1016.84
2018-06-23T11:56:47.233Z,1016.81
2018-06-23T11:57:47.300Z,1016.81
2018-06-23T11:58:47.366Z,1016.83
2018-06-23T11:59:47.431Z,1016.86
2018-06-23T12:00:47.497Z,1016.88
2018-06-23T12:01:47.568Z,1016.91
2018-06-23T12:02:47.628Z,1016.85
2018-06-23T12:03:47.697Z,1016.84
2018-06-23T12:04:48.011Z,1016.87
2018-06-23T12:05:47.825Z,1016.89
2018-06-23T12:06:48.366Z,1016.82